createdAt,value
2023-04-09T00:01:30.273Z,9.50
2023-04-09T00:03:56.807Z,9.45
2023-04-09T00:06:23.289Z,9.43
2023-04-09T00:08:49.850Z,9.38
2023-04-09T00:11:16.398Z,9.34
2023-04-09T00:13:42.814Z,9.28
2023-04-09T00:16:09.346Z,9.23
2023-04-09T00:18:36.197Z,9.19
2023-04-09T00:21:02.715Z,9.13
2023-04-09T00:23:29.201Z,9.06
2023-04-09T00:25:55.660Z,9.03
2023-04-09T00:28:22.139Z,8.97
2023-04-09T00:30:48.639Z,8.92
2023-04-09T00:33:15.343Z,8.89
2023-04-09T00:35:41.790Z,8.84
2023-04-09T00:38:08.259Z,8.80
2023-04-09T00:40:34.761Z,8.77
2023-04-09T00:43:02.293Z,8.73
2023-04-09T00:45:28.796Z,8.70
2023-04-09T00:47:55.608Z,8.68
2023-04-09T00:50:22.235Z,8.64
2023-04-09T00:52:48.702Z,8.65
2023-04-09T00:55:15.512Z,8.61
2023-04-09T00:57:41.981Z,8.60
2023-04-09T01:00:11.217Z,8.59
2023-04-09T01:02:38.311Z,8.59
2023-04-09T01:05:05.793Z,8.58
2023-04-09T01:08:03.237Z,8.54
2023-04-09T01:10:37.702Z,8.55
2023-04-09T01:13:10.220Z,8.53
2023-04-09T01:15:52.054Z,8.47
2023-04-09T01:18:28.971Z,8.48
2023-04-09T01:20:59.460Z,8.50
2023-04-09T01:23:37.250Z,8.45
2023-04-09T01:26:11.147Z,8.43
2023-04-09T01:28:43.358Z,8.43
2023-04-09T01:31:14.032Z,8.42
2023-04-09T01:33:44.307Z,8.38
2023-04-09T01:36:11.598Z,8.37
2023-04-09T01:38:41.487Z,8.33
2023-04-09T01:41:12.487Z,8.31
2023-04-09T01:43:39.887Z,8.29
2023-04-09T01:46:06.512Z,8.26
2023-04-09T01:48:34.104Z,8.23
2023-04-09T01:51:01.347Z,8.20
2023-04-09T01:53:31.110Z,8.18
2023-04-09T01:56:01.485Z,8.13
2023-04-09T01:58:28.159Z,8.10
2023-04-09T02:01:06.564Z,8.04
2023-04-09T02:03:37.996Z,8.03
2023-04-09T02:06:15.630Z,8.00
2023-04-09T02:08:47.115Z,7.96
2023-04-09T02:11:15.952Z,7.95
2023-04-09T02:13:44.076Z,7.92
2023-04-09T02:16:13.741Z,7.89
2023-04-09T02:18:40.284Z,7.87
2023-04-09T02:21:07.308Z,7.84
2023-04-09T02:23:33.718Z,7.83
2023-04-09T02:26:01.913Z,7.80
2023-04-09T02:28:28.453Z,7.78
2023-04-09T02:30:54.924Z,7.76
2023-04-09T02:33:21.497Z,7.74
2023-04-09T02:35:47.972Z,7.73
2023-04-09T02:38:15.899Z,7.69
2023-04-09T02:40:42.417Z,7.67
2023-04-09T02:43:10.149Z,7.64
2023-04-09T02:45:36.738Z,7.63
2023-04-09T02:48:03.535Z,7.61
2023-04-09T02:50:29.972Z,7.61
2023-04-09T02:52:56.452Z,7.56
2023-04-09T02:55:23.257Z,7.55
2023-04-09T02:57:49.695Z,7.54
2023-04-09T03:00:16.293Z,7.52
2023-04-09T03:02:43.001Z,7.49
2023-04-09T03:05:09.775Z,7.48
2023-04-09T03:07:36.187Z,7.46
2023-04-09T03:10:02.681Z,7.46
2023-04-09T03:12:29.139Z,7.44
2023-04-09T03:14:55.743Z,7.42
2023-04-09T03:17:24.600Z,7.40
2023-04-09T03:19:51.196Z,7.37
2023-04-09T03:22:17.568Z,7.37
2023-04-09T03:24:44.049Z,7.35
2023-04-09T03:27:10.556Z,7.34
2023-04-09T03:29:37.032Z,7.33
2023-04-09T03:32:03.472Z,7.33
2023-04-09T03:34:29.917Z,7.31
2023-04-09T03:36:56.350Z,7.29
2023-04-09T03:39:25.066Z,7.27
2023-04-09T03:41:51.510Z,7.27
2023-04-09T03:44:17.931Z,7.25
2023-04-09T03:46:44.373Z,7.25
2023-04-09T03:49:10.830Z,7.24
2023-04-09T03:51:37.256Z,7.22
2023-04-09T03:54:03.851Z,7.22
2023-04-09T03:56:30.316Z,7.21
2023-04-09T03:58:56.729Z,7.21
2023-04-09T04:01:23.177Z,7.21
2023-04-09T04:03:49.921Z,7.21
2023-04-09T04:06:16.472Z,7.21
2023-04-09T04:11:20.443Z,7.22
2023-04-09T04:13:46.937Z,7.21
2023-04-09T04:16:13.450Z,7.20
2023-04-09T04:18:39.992Z,7.20
2023-04-09T04:21:13.040Z,7.17
2023-04-09T04:23:39.419Z,7.17
2023-04-09T04:26:12.471Z,7.19
2023-04-09T04:28:39.314Z,7.17
2023-04-09T04:31:12.474Z,7.19
2023-04-09T04:33:41.175Z,7.15
2023-04-09T04:36:12.877Z,7.11
2023-04-09T04:38:41.256Z,7.12
2023-04-09T04:41:08.235Z,7.07
2023-04-09T04:43:34.952Z,7.06
2023-04-09T04:46:01.867Z,7.03
2023-04-09T04:48:29.276Z,7.01
2023-04-09T04:50:57.623Z,7.00
2023-04-09T04:53:24.271Z,6.98
2023-04-09T04:55:50.954Z,6.95
2023-04-09T04:58:18.048Z,6.94
2023-04-09T05:00:45.301Z,6.93
2023-04-09T05:03:12.708Z,6.91
2023-04-09T05:05:39.288Z,6.90
2023-04-09T05:08:06.017Z,6.90
2023-04-09T05:10:32.533Z,6.90
2023-04-09T05:12:59.087Z,6.91
2023-04-09T05:15:25.586Z,6.93
2023-04-09T05:17:52.415Z,6.94
2023-04-09T05:20:18.853Z,6.95
2023-04-09T05:22:45.394Z,6.98
2023-04-09T05:25:11.849Z,6.98
2023-04-09T05:27:38.338Z,6.99
2023-04-09T05:30:05.043Z,7.00
2023-04-09T05:32:31.587Z,7.01
2023-04-09T05:34:58.173Z,7.03
2023-04-09T05:37:25.424Z,7.04
2023-04-09T05:39:52.018Z,7.07
2023-04-09T05:42:18.671Z,7.08
2023-04-09T05:44:45.308Z,7.11
2023-04-09T05:47:11.772Z,7.13
2023-04-09T05:49:38.349Z,7.15
2023-04-09T05:52:05.064Z,7.17
2023-04-09T05:54:31.963Z,7.20
2023-04-09T05:56:58.504Z,7.22
2023-04-09T05:59:25.028Z,7.24
2023-04-09T06:01:51.507Z,7.27
2023-04-09T06:04:18.415Z,7.30
2023-04-09T06:06:45.886Z,7.34
2023-04-09T06:09:12.698Z,7.38
2023-04-09T06:11:39.234Z,7.42
2023-04-09T06:14:05.859Z,7.47
2023-04-09T06:16:33.688Z,7.50
2023-04-09T06:19:00.189Z,7.55
2023-04-09T06:21:26.829Z,7.60
2023-04-09T06:23:53.958Z,7.64
2023-04-09T06:26:21.153Z,7.68
2023-04-09T06:28:47.748Z,7.73
2023-04-09T06:31:14.339Z,7.76
2023-04-09T06:33:41.259Z,7.81
2023-04-09T06:36:08.111Z,7.87
2023-04-09T06:38:34.620Z,7.93
2023-04-09T06:41:01.140Z,7.99
2023-04-09T06:43:27.825Z,8.04
2023-04-09T06:45:54.338Z,8.11
2023-04-09T06:48:20.899Z,8.16
2023-04-09T06:50:47.483Z,8.24
2023-04-09T06:53:15.138Z,8.30
2023-04-09T06:55:42.091Z,8.37
2023-04-09T06:58:08.646Z,8.45
2023-04-09T07:00:35.491Z,8.52
2023-04-09T07:03:02.609Z,8.58
2023-04-09T07:05:30.725Z,8.66
2023-04-09T07:07:57.186Z,8.72
2023-04-09T07:10:23.786Z,8.81
2023-04-09T07:12:50.258Z,8.89
2023-04-09T07:15:16.773Z,8.97
2023-04-09T07:17:43.368Z,9.06
2023-04-09T07:20:10.465Z,9.15
2023-04-09T07:22:37.097Z,9.24
2023-04-09T07:25:04.030Z,9.33
2023-04-09T07:27:30.535Z,9.44
2023-04-09T07:29:59.118Z,9.55
2023-04-09T07:32:27.912Z,9.65
2023-04-09T07:34:55.741Z,9.74
2023-04-09T07:37:22.327Z,9.83
2023-04-09T07:39:49.647Z,9.93
2023-04-09T07:42:16.115Z,9.99
2023-04-09T07:44:43.849Z,10.06
2023-04-09T07:47:11.271Z,10.12
2023-04-09T07:49:40.988Z,10.17
2023-04-09T07:52:08.167Z,10.24
2023-04-09T07:54:35.430Z,10.28
2023-04-09T07:57:02.089Z,10.32
2023-04-09T07:59:29.653Z,10.38
2023-04-09T08:01:56.782Z,10.41
2023-04-09T08:04:23.501Z,10.47
2023-04-09T08:06:51.110Z,10.52
2023-04-09T08:09:18.687Z,10.54
2023-04-09T08:11:45.860Z,10.59
2023-04-09T08:14:13.078Z,10.65
2023-04-09T08:16:41.628Z,10.69
2023-04-09T08:19:09.294Z,10.72
2023-04-09T08:21:46.100Z,10.73
2023-04-09T08:24:12.868Z,10.80
2023-04-09T08:26:40.339Z,10.84
2023-04-09T08:29:08.423Z,10.89
2023-04-09T08:31:36.557Z,10.94
2023-04-09T08:34:03.425Z,10.99
2023-04-09T08:36:30.072Z,11.05
2023-04-09T08:38:57.061Z,11.12
2023-04-09T08:41:26.171Z,11.17
2023-04-09T08:43:58.248Z,11.25
2023-04-09T08:46:26.135Z,11.33
2023-04-09T08:48:53.362Z,11.41
2023-04-09T08:51:22.371Z,11.49
2023-04-09T08:54:00.777Z,11.56
2023-04-09T08:56:30.459Z,11.68
2023-04-09T08:58:57.028Z,11.78
2023-04-09T09:01:24.417Z,11.90
2023-04-09T09:04:01.820Z,11.98
2023-04-09T09:06:32.950Z,12.11
2023-04-09T09:09:04.973Z,12.21
2023-04-09T09:11:32.486Z,12.34
2023-04-09T09:14:06.872Z,12.44
2023-04-09T09:16:35.889Z,12.57
2023-04-09T09:19:03.106Z,12.69
2023-04-09T09:21:30.199Z,12.81
2023-04-09T09:23:57.663Z,12.91
2023-04-09T09:26:27.240Z,13.01
2023-04-09T09:28:54.009Z,13.13
2023-04-09T09:31:22.462Z,13.23
2023-04-09T09:33:50.597Z,13.32
2023-04-09T09:36:34.363Z,13.38
2023-04-09T09:39:10.093Z,13.53
2023-04-09T09:41:36.978Z,13.64
2023-04-09T09:44:04.555Z,13.77
2023-04-09T09:46:35.771Z,13.88
2023-04-09T09:49:02.520Z,14.02
2023-04-09T09:51:29.146Z,14.14
2023-04-09T09:53:57.221Z,14.27
2023-04-09T09:56:35.084Z,14.37
2023-04-09T09:59:07.883Z,14.53
2023-04-09T10:01:37.553Z,14.68
2023-04-09T10:04:07.099Z,14.80
2023-04-09T10:06:41.664Z,14.90
2023-04-09T10:09:08.582Z,15.00
2023-04-09T10:11:37.058Z,15.05
2023-04-09T10:14:05.115Z,15.16
2023-04-09T10:16:32.064Z,15.27
2023-04-09T10:18:59.729Z,15.38
2023-04-09T10:21:43.996Z,15.47
2023-04-09T10:24:11.192Z,15.67
2023-04-09T10:26:41.750Z,15.82
2023-04-09T10:29:16.635Z,15.94
2023-04-09T10:31:52.346Z,16.05
2023-04-09T10:34:23.559Z,16.14
2023-04-09T10:36:55.941Z,16.23
2023-04-09T10:39:32.004Z,16.28
2023-04-09T10:42:00.105Z,16.36
2023-04-09T10:44:27.905Z,16.39
2023-04-09T10:46:55.390Z,16.40
2023-04-09T10:49:23.495Z,16.42
2023-04-09T10:51:53.605Z,16.44
2023-04-09T10:54:35.224Z,16.46
2023-04-09T10:57:07.654Z,16.49
2023-04-09T10:59:38.642Z,16.49
2023-04-09T11:02:08.923Z,16.48
2023-04-09T11:04:51.876Z,16.45
2023-04-09T11:07:22.273Z,16.54
2023-04-09T11:09:48.742Z,16.73
2023-04-09T11:12:15.326Z,17.00
2023-04-09T11:14:41.747Z,17.26
2023-04-09T11:17:08.271Z,17.47
2023-04-09T11:19:34.886Z,17.67
2023-04-09T11:22:06.448Z,17.96
2023-04-09T11:24:43.280Z,18.38
2023-04-09T11:27:09.813Z,18.98
2023-04-09T11:29:36.633Z,19.63
2023-04-09T11:32:05.136Z,20.36
2023-04-09T11:34:32.271Z,21.15
2023-04-09T11:36:59.752Z,21.90
2023-04-09T11:39:26.378Z,22.60
2023-04-09T11:41:53.230Z,23.14
2023-04-09T11:44:20.960Z,23.42
2023-04-09T11:46:49.151Z,23.47
2023-04-09T11:49:17.200Z,23.29
2023-04-09T11:51:43.710Z,23.11
2023-04-09T11:54:11.870Z,23.06
2023-04-09T11:56:38.399Z,23.24
2023-04-09T11:59:04.947Z,23.56
2023-04-09T12:01:35.293Z,23.93
2023-04-09T12:04:02.058Z,24.32
2023-04-09T12:06:29.700Z,24.48
2023-04-09T12:08:57.349Z,24.34
2023-04-09T12:11:31.712Z,23.99
2023-04-09T12:14:07.641Z,23.55
2023-04-09T12:16:35.468Z,23.22
2023-04-09T12:19:03.418Z,22.89
2023-04-09T12:21:48.935Z,22.58
2023-04-09T12:24:17.090Z,22.42
2023-04-09T12:26:46.016Z,22.21
2023-04-09T12:29:16.977Z,21.96
2023-04-09T12:31:44.521Z,21.82
2023-04-09T12:34:11.206Z,21.65
2023-04-09T12:36:38.889Z,21.55
2023-04-09T12:39:05.439Z,21.57
2023-04-09T12:41:31.907Z,21.75
2023-04-09T12:43:58.459Z,21.94
2023-04-09T12:46:25.808Z,22.02
2023-04-09T12:48:52.292Z,21.94
2023-04-09T12:51:18.867Z,21.75
2023-04-09T12:53:45.292Z,21.48
2023-04-09T12:56:11.730Z,21.29
2023-04-09T12:58:38.480Z,21.23
2023-04-09T13:01:05.404Z,21.37
2023-04-09T13:03:32.344Z,21.73
2023-04-09T13:05:58.973Z,22.23
2023-04-09T13:08:25.469Z,22.70
2023-04-09T13:10:51.952Z,23.00
2023-04-09T13:13:18.388Z,23.13
2023-04-09T13:15:45.010Z,23.04
2023-04-09T13:18:12.756Z,22.92
2023-04-09T13:20:39.394Z,22.75
2023-04-09T13:23:06.347Z,22.59
2023-04-09T13:25:32.838Z,22.40
2023-04-09T13:28:24.037Z,22.21
2023-04-09T13:30:48.022Z,21.96
2023-04-09T13:33:14.510Z,21.78
2023-04-09T13:35:40.984Z,21.58
2023-04-09T13:38:07.600Z,21.41
2023-04-09T13:40:33.989Z,21.24
2023-04-09T13:43:01.017Z,21.05
2023-04-09T13:45:27.472Z,20.89
2023-04-09T13:47:53.980Z,20.69
2023-04-09T13:50:20.438Z,20.50
2023-04-09T13:52:46.879Z,20.28
2023-04-09T13:55:13.293Z,20.08
2023-04-09T13:57:39.722Z,19.90
2023-04-09T14:00:08.104Z,19.73
2023-04-09T14:02:34.747Z,19.59
2023-04-09T14:05:03.568Z,19.46
2023-04-09T14:07:30.781Z,19.35
2023-04-09T14:09:57.265Z,19.27
2023-04-09T14:12:24.927Z,19.29
2023-04-09T14:14:51.800Z,19.36
2023-04-09T14:17:18.341Z,19.46
2023-04-09T14:19:44.780Z,19.49
2023-04-09T14:22:11.471Z,19.47
2023-04-09T14:24:39.879Z,19.44
2023-04-09T14:27:07.690Z,19.38
2023-04-09T14:29:34.614Z,19.33
2023-04-09T14:32:01.322Z,19.31
2023-04-09T14:34:31.219Z,19.27
2023-04-09T14:36:57.771Z,19.31
2023-04-09T14:39:24.333Z,19.38
2023-04-09T14:41:50.869Z,19.55
2023-04-09T14:44:17.610Z,19.75
2023-04-09T14:46:44.258Z,19.91
2023-04-09T14:49:10.679Z,20.03
2023-04-09T14:51:37.312Z,20.08
2023-04-09T14:54:03.816Z,20.05
2023-04-09T14:56:30.311Z,19.96
2023-04-09T14:58:56.833Z,19.81
2023-04-09T15:01:23.267Z,19.63
2023-04-09T15:03:49.909Z,19.45
2023-04-09T15:06:16.614Z,19.26
2023-04-09T15:08:43.130Z,19.04
2023-04-09T15:11:15.805Z,18.78
2023-04-09T15:13:42.342Z,18.61
2023-04-09T15:16:08.945Z,18.41
2023-04-09T15:18:37.329Z,18.26
2023-04-09T15:21:03.935Z,18.15
2023-04-09T15:23:30.707Z,18.05
2023-04-09T15:25:57.237Z,17.98
2023-04-09T15:28:23.750Z,17.89
2023-04-09T15:30:50.417Z,17.80
2023-04-09T15:33:16.863Z,17.68
2023-04-09T15:35:43.323Z,17.58
2023-04-09T15:38:09.851Z,17.50
2023-04-09T15:40:36.363Z,17.40
2023-04-09T15:43:02.765Z,17.31
2023-04-09T15:45:29.264Z,17.24
2023-04-09T15:47:55.755Z,17.18
2023-04-09T15:50:22.278Z,17.16
2023-04-09T15:52:48.930Z,17.14
2023-04-09T15:55:16.040Z,17.15
2023-04-09T15:57:46.641Z,17.15
2023-04-09T16:00:13.377Z,17.18
2023-04-09T16:02:40.852Z,17.22
2023-04-09T16:05:07.793Z,17.25
2023-04-09T16:07:34.928Z,17.26
2023-04-09T16:13:35.716Z,17.11
2023-04-09T16:16:02.480Z,17.01
2023-04-09T16:18:29.424Z,16.91
2023-04-09T16:20:57.126Z,16.78
2023-04-09T16:23:25.331Z,16.68
2023-04-09T16:25:52.227Z,16.61
2023-04-09T16:28:21.610Z,16.54
2023-04-09T16:30:50.281Z,16.47
2023-04-09T16:33:17.007Z,16.45
2023-04-09T16:35:43.566Z,16.44
2023-04-09T16:38:10.341Z,16.44
2023-04-09T16:40:37.066Z,16.45
2023-04-09T16:43:04.276Z,16.45
2023-04-09T16:45:32.033Z,16.44
2023-04-09T16:47:58.656Z,16.41
2023-04-09T16:50:25.321Z,16.41
2023-04-09T16:52:51.935Z,16.41
2023-04-09T16:55:18.489Z,16.39
2023-04-09T16:57:45.065Z,16.36
2023-04-09T17:00:12.796Z,16.30
2023-04-09T17:02:39.611Z,16.24
2023-04-09T17:05:06.676Z,16.14
2023-04-09T17:07:33.643Z,16.05
2023-04-09T17:10:02.829Z,15.96
2023-04-09T17:12:29.395Z,15.87
2023-04-09T17:14:56.020Z,15.81
2023-04-09T17:17:22.520Z,15.73
2023-04-09T17:19:49.094Z,15.67
2023-04-09T17:22:17.779Z,15.61
2023-04-09T17:24:44.932Z,15.55
2023-04-09T17:27:11.433Z,15.49
2023-04-09T17:29:38.060Z,15.44
2023-04-09T17:32:04.736Z,15.39
2023-04-09T17:34:31.322Z,15.36
2023-04-09T17:36:59.772Z,15.33
2023-04-09T17:39:27.100Z,15.28
2023-04-09T17:41:56.381Z,15.22
2023-04-09T17:44:24.978Z,15.16
2023-04-09T17:46:52.013Z,15.08
2023-04-09T17:49:18.492Z,15.03
2023-04-09T17:51:45.092Z,14.98
2023-04-09T17:54:12.513Z,14.95
2023-04-09T17:56:39.129Z,14.92
2023-04-09T17:59:06.731Z,14.87
2023-04-09T18:01:33.464Z,14.80
2023-04-09T18:04:01.570Z,14.73
2023-04-09T18:06:28.394Z,14.66
2023-04-09T18:08:54.903Z,14.56
2023-04-09T18:11:21.650Z,14.45
2023-04-09T18:13:48.439Z,14.35
2023-04-09T18:16:15.141Z,14.24
2023-04-09T18:18:41.618Z,14.13
2023-04-09T18:21:08.178Z,14.02
2023-04-09T18:23:34.887Z,13.92
2023-04-09T18:26:01.778Z,13.83
2023-04-09T18:28:28.334Z,13.73
2023-04-09T18:30:54.971Z,13.64
2023-04-09T18:33:21.680Z,13.55
2023-04-09T18:35:48.229Z,13.48
2023-04-09T18:38:14.967Z,13.39
2023-04-09T18:40:43.558Z,13.32
2023-04-09T18:43:11.763Z,13.27
2023-04-09T18:45:39.637Z,13.21
2023-04-09T18:48:08.059Z,13.15
2023-04-09T18:50:34.933Z,13.09
2023-04-09T18:53:03.415Z,13.03
2023-04-09T18:55:30.142Z,12.97
2023-04-09T18:57:57.541Z,12.93
2023-04-09T19:00:24.117Z,12.88
2023-04-09T19:02:50.908Z,12.83
2023-04-09T19:05:17.626Z,12.79
2023-04-09T19:07:44.037Z,12.74
2023-04-09T19:10:10.828Z,12.70
2023-04-09T19:12:38.038Z,12.66
2023-04-09T19:15:06.145Z,12.61
2023-04-09T19:17:34.023Z,12.57
2023-04-09T19:20:01.072Z,12.54
2023-04-09T19:22:28.122Z,12.49
2023-04-09T19:24:54.698Z,12.45
2023-04-09T19:27:21.135Z,12.41
2023-04-09T19:29:47.698Z,12.36
2023-04-09T19:32:14.744Z,12.32
2023-04-09T19:34:41.331Z,12.27
2023-04-09T19:40:04.693Z,12.17
2023-04-09T19:42:32.878Z,12.12
2023-04-09T19:45:00.353Z,12.06
2023-04-09T19:47:27.755Z,12.02
2023-04-09T19:49:54.521Z,11.97
2023-04-09T19:52:21.326Z,11.94
2023-04-09T19:54:48.093Z,11.90
2023-04-09T19:57:15.322Z,11.85
2023-04-09T19:59:41.967Z,11.82
2023-04-09T20:02:08.811Z,11.78
2023-04-09T20:04:35.657Z,11.74
2023-04-09T20:07:02.178Z,11.71
2023-04-09T20:09:29.170Z,11.67
2023-04-09T20:11:55.800Z,11.64
2023-04-09T20:14:22.415Z,11.62
2023-04-09T20:16:48.985Z,11.59
2023-04-09T20:19:15.537Z,11.55
2023-04-09T20:21:43.551Z,11.55
2023-04-09T20:24:10.084Z,11.53
2023-04-09T20:26:36.704Z,11.52
2023-04-09T20:29:03.186Z,11.51
2023-04-09T20:31:30.944Z,11.50
2023-04-09T20:33:57.591Z,11.49
2023-04-09T20:36:24.308Z,11.47
2023-04-09T20:38:50.857Z,11.46
2023-04-09T20:41:17.481Z,11.45
2023-04-09T20:43:44.108Z,11.43
2023-04-09T20:46:11.025Z,11.40
2023-04-09T20:48:37.962Z,11.38
2023-04-09T20:51:10.066Z,11.34
2023-04-09T20:53:37.524Z,11.36
2023-04-09T20:56:06.047Z,11.33
2023-04-09T20:58:33.475Z,11.32
2023-04-09T21:01:06.430Z,11.27
2023-04-09T21:03:36.744Z,11.26
2023-04-09T21:06:03.528Z,11.25
2023-04-09T21:08:30.826Z,11.21
2023-04-09T21:10:57.401Z,11.17
2023-04-09T21:13:24.333Z,11.16
2023-04-09T21:15:51.290Z,11.13
2023-04-09T21:18:17.899Z,11.12
2023-04-09T21:20:47.703Z,11.07
2023-04-09T21:23:15.072Z,11.07
2023-04-09T21:25:42.076Z,11.06
2023-04-09T21:28:09.009Z,11.05
2023-04-09T21:30:37.820Z,11.04
2023-04-09T21:33:06.627Z,11.04
2023-04-09T21:35:34.084Z,11.04
2023-04-09T21:38:00.668Z,11.03
2023-04-09T21:40:27.205Z,11.02
2023-04-09T21:42:53.723Z,11.01
2023-04-09T21:45:21.140Z,11.00
2023-04-09T21:47:47.671Z,10.99
2023-04-09T21:50:14.733Z,10.98
2023-04-09T21:52:41.750Z,10.97
2023-04-09T21:55:10.311Z,10.94
2023-04-09T21:57:36.875Z,10.93
2023-04-09T22:00:05.336Z,10.93
2023-04-09T22:02:31.966Z,10.91
2023-04-09T22:04:59.957Z,10.89
2023-04-09T22:07:26.816Z,10.88
2023-04-09T22:09:58.107Z,10.85
2023-04-09T22:12:35.146Z,10.85
2023-04-09T22:15:18.914Z,10.82
2023-04-09T22:17:51.065Z,10.81
2023-04-09T22:20:31.432Z,10.79
2023-04-09T22:23:00.915Z,10.77
2023-04-09T22:25:34.805Z,10.75
2023-04-09T22:28:14.766Z,10.74
2023-04-09T22:30:49.752Z,10.70
2023-04-09T22:33:21.592Z,10.69
2023-04-09T22:35:50.356Z,10.69
2023-04-09T22:38:22.817Z,10.68
2023-04-09T22:40:56.060Z,10.66
2023-04-09T22:43:27.195Z,10.65
2023-04-09T22:46:18.113Z,10.62
2023-04-09T22:49:03.902Z,10.63
2023-04-09T22:51:45.452Z,10.64
2023-04-09T22:54:12.092Z,10.63
2023-04-09T22:56:38.639Z,10.63
2023-04-09T22:59:06.101Z,10.63
2023-04-09T23:01:32.774Z,10.61
2023-04-09T23:03:59.256Z,10.60
2023-04-09T23:06:25.901Z,10.61
2023-04-09T23:08:52.545Z,10.61
2023-04-09T23:11:19.369Z,10.61
2023-04-09T23:13:47.050Z,10.60
2023-04-09T23:16:13.976Z,10.60
2023-04-09T23:18:40.723Z,10.60
2023-04-09T23:21:08.717Z,10.61
2023-04-09T23:23:36.353Z,10.62
2023-04-09T23:26:02.923Z,10.62
2023-04-09T23:28:29.883Z,10.63
2023-04-09T23:30:56.888Z,10.64
2023-04-09T23:33:24.017Z,10.64
2023-04-09T23:35:50.938Z,10.64
2023-04-09T23:38:17.632Z,10.64
2023-04-09T23:40:47.203Z,10.64
2023-04-09T23:43:19.337Z,10.63
2023-04-09T23:45:56.199Z,10.63
2023-04-09T23:48:40.000Z,10.64
2023-04-09T23:51:06.691Z,10.64
2023-04-09T23:53:33.233Z,10.64
2023-04-09T23:56:02.024Z,10.63
2023-04-09T23:58:28.504Z,10.62
